createdAt,value
2022-12-31T00:02:01.211Z,4.10
2022-12-31T00:04:34.075Z,3.10
2022-12-31T00:07:06.176Z,4.13
2022-12-31T00:09:39.334Z,5.13
2022-12-31T00:12:14.237Z,7.32
2022-12-31T00:14:47.050Z,5.28
2022-12-31T00:17:19.403Z,5.75
2022-12-31T00:19:51.938Z,5.00
2022-12-31T00:22:24.384Z,5.13
2022-12-31T00:24:56.703Z,5.15
2022-12-31T00:27:34.038Z,4.85
2022-12-31T00:30:06.785Z,3.25
2022-12-31T00:32:38.643Z,3.78
2022-12-31T00:35:13.644Z,3.40
2022-12-31T00:37:49.555Z,3.75
2022-12-31T00:40:24.800Z,7.45
2022-12-31T00:43:03.504Z,4.00
2022-12-31T00:45:38.136Z,3.80
2022-12-31T00:48:09.825Z,4.15
2022-12-31T00:50:42.094Z,5.22
2022-12-31T00:53:13.722Z,4.00
2022-12-31T00:55:47.709Z,3.53
2022-12-31T00:58:22.218Z,3.45
2022-12-31T01:00:58.133Z,4.00
2022-12-31T01:03:30.277Z,6.53
2022-12-31T01:06:03.022Z,2.40
2022-12-31T01:08:34.744Z,2.92
2022-12-31T01:11:22.859Z,2.30
2022-12-31T01:14:01.794Z,2.75
2022-12-31T01:16:41.411Z,2.35
2022-12-31T01:19:16.240Z,2.13
2022-12-31T01:21:50.949Z,1.65
2022-12-31T01:24:24.129Z,1.88
2022-12-31T01:26:58.139Z,2.85
2022-12-31T01:29:32.563Z,1.77
2022-12-31T01:32:05.954Z,1.63
2022-12-31T01:34:37.731Z,1.27
2022-12-31T01:37:09.817Z,1.85
2022-12-31T01:39:44.209Z,1.95
2022-12-31T01:42:16.055Z,1.42
2022-12-31T01:44:59.227Z,1.77
2022-12-31T01:47:43.822Z,1.63
2022-12-31T01:50:19.599Z,1.45
2022-12-31T01:52:56.388Z,1.38
2022-12-31T01:55:32.196Z,1.85
2022-12-31T01:58:10.277Z,0.98
2022-12-31T02:00:46.612Z,0.80
2022-12-31T02:03:19.377Z,1.52
2022-12-31T02:05:58.449Z,1.70
2022-12-31T02:08:30.294Z,1.20
2022-12-31T02:11:01.716Z,0.90
2022-12-31T02:13:33.815Z,0.95
2022-12-31T02:16:18.401Z,1.55
2022-12-31T02:18:59.362Z,1.30
2022-12-31T02:21:54.952Z,1.90
2022-12-31T02:24:56.167Z,1.27
2022-12-31T02:27:43.838Z,1.00
2022-12-31T02:30:22.651Z,1.67
2022-12-31T02:33:12.331Z,1.75
2022-12-31T02:35:54.203Z,1.13
2022-12-31T02:38:35.797Z,1.13
2022-12-31T02:41:08.156Z,1.52
2022-12-31T02:43:41.102Z,2.35
2022-12-31T02:46:28.115Z,1.80
2022-12-31T02:49:08.596Z,2.90
2022-12-31T02:51:49.038Z,1.90
2022-12-31T02:54:31.507Z,2.08
2022-12-31T02:57:13.734Z,2.33
2022-12-31T03:00:05.740Z,1.67
2022-12-31T03:02:44.565Z,1.60
2022-12-31T03:05:19.004Z,1.85
2022-12-31T03:07:51.847Z,1.55
2022-12-31T03:10:24.415Z,1.88
2022-12-31T03:12:54.251Z,1.70
2022-12-31T03:15:28.603Z,1.42
2022-12-31T03:18:06.945Z,2.72
2022-12-31T03:20:53.547Z,1.80
2022-12-31T03:23:28.236Z,1.23
2022-12-31T03:25:58.776Z,0.93
2022-12-31T03:28:33.043Z,2.50
2022-12-31T03:31:07.142Z,1.52
2022-12-31T03:33:44.589Z,1.50
2022-12-31T03:36:18.126Z,1.27
2022-12-31T03:38:52.818Z,0.95
2022-12-31T03:41:25.271Z,1.25
2022-12-31T03:43:57.775Z,0.95
2022-12-31T03:46:29.793Z,1.27
2022-12-31T03:49:05.137Z,1.42
2022-12-31T03:51:37.210Z,0.95
2022-12-31T03:54:09.715Z,1.35
2022-12-31T03:56:41.581Z,1.98
2022-12-31T03:59:13.327Z,2.55
2022-12-31T04:01:45.278Z,1.35
2022-12-31T04:04:20.048Z,0.98
2022-12-31T04:06:51.528Z,0.93
2022-12-31T04:09:24.017Z,1.13
2022-12-31T04:11:55.682Z,1.00
2022-12-31T04:14:27.925Z,1.45
2022-12-31T04:16:59.730Z,1.30
2022-12-31T04:19:34.742Z,1.98
2022-12-31T04:22:06.722Z,1.40
2022-12-31T04:24:38.813Z,2.53
2022-12-31T04:27:10.410Z,2.20
2022-12-31T04:29:45.257Z,0.80
2022-12-31T04:32:16.484Z,1.00
2022-12-31T04:34:51.157Z,0.90
2022-12-31T04:37:22.533Z,0.85
2022-12-31T04:39:54.130Z,1.10
2022-12-31T04:42:25.498Z,1.67
2022-12-31T04:44:57.344Z,1.83
2022-12-31T04:47:28.572Z,1.08
2022-12-31T04:50:03.411Z,1.40
2022-12-31T04:52:42.098Z,0.80
2022-12-31T04:55:15.225Z,0.80
2022-12-31T04:57:46.806Z,0.98
2022-12-31T05:00:19.338Z,1.77
2022-12-31T05:02:51.102Z,1.58
2022-12-31T05:05:25.314Z,1.10
2022-12-31T05:07:56.796Z,0.98
2022-12-31T05:10:28.557Z,0.90
2022-12-31T05:13:00.102Z,0.70
2022-12-31T05:15:31.761Z,0.77
2022-12-31T05:18:03.322Z,1.67
2022-12-31T05:20:38.075Z,1.27
2022-12-31T05:23:09.459Z,0.88
2022-12-31T05:25:41.301Z,0.63
2022-12-31T05:28:12.741Z,1.20
2022-12-31T05:30:45.224Z,2.75
2022-12-31T05:33:16.723Z,1.60
2022-12-31T05:35:51.145Z,2.00
2022-12-31T05:38:22.205Z,3.42
2022-12-31T05:41:03.171Z,2.33
2022-12-31T05:43:35.252Z,2.03
2022-12-31T05:46:08.335Z,1.25
2022-12-31T05:48:39.913Z,1.92
2022-12-31T05:51:14.338Z,1.45
2022-12-31T05:53:45.888Z,2.40
2022-12-31T05:56:18.203Z,4.28
2022-12-31T05:58:49.633Z,1.60
2022-12-31T06:01:21.501Z,1.45
2022-12-31T06:03:52.739Z,2.40
2022-12-31T06:06:27.015Z,1.80
2022-12-31T06:08:58.464Z,1.23
2022-12-31T06:11:30.150Z,1.25
2022-12-31T06:14:01.720Z,1.10
2022-12-31T06:16:33.466Z,1.83
2022-12-31T06:19:05.102Z,2.38
2022-12-31T06:21:39.693Z,1.00
2022-12-31T06:24:11.631Z,1.83
2022-12-31T06:26:43.408Z,2.60
2022-12-31T06:29:14.783Z,1.20
2022-12-31T06:31:46.408Z,1.45
2022-12-31T06:34:17.704Z,1.60
2022-12-31T06:36:51.844Z,2.15
2022-12-31T06:39:23.175Z,2.88
2022-12-31T06:41:54.861Z,1.85
2022-12-31T06:44:26.288Z,0.90
2022-12-31T06:46:58.001Z,0.80
2022-12-31T06:49:29.269Z,1.33
2022-12-31T06:52:03.794Z,1.05
2022-12-31T06:54:35.645Z,1.08
2022-12-31T06:57:08.136Z,0.50
2022-12-31T06:59:40.130Z,3.80
2022-12-31T07:02:24.178Z,1.52
2022-12-31T07:05:34.011Z,0.90
2022-12-31T07:08:22.032Z,1.90
2022-12-31T07:11:00.336Z,1.08
2022-12-31T07:13:49.778Z,0.50
2022-12-31T07:16:32.297Z,1.23
2022-12-31T07:19:22.773Z,1.15
2022-12-31T07:21:57.166Z,1.80
2022-12-31T07:24:32.540Z,0.70
2022-12-31T07:27:19.091Z,1.67
2022-12-31T07:30:06.173Z,0.95
2022-12-31T07:32:56.442Z,1.05
2022-12-31T07:35:38.025Z,0.68
2022-12-31T07:38:18.158Z,0.73
2022-12-31T07:41:09.721Z,0.50
2022-12-31T07:43:56.624Z,1.42
2022-12-31T07:46:36.989Z,1.38
2022-12-31T07:49:13.691Z,3.20
2022-12-31T07:51:46.711Z,1.13
2022-12-31T07:54:20.774Z,0.50
2022-12-31T07:56:55.656Z,0.98
2022-12-31T07:59:45.232Z,1.35
2022-12-31T08:02:30.298Z,1.58
2022-12-31T08:05:10.151Z,1.15
2022-12-31T08:07:51.896Z,1.30
2022-12-31T08:10:32.362Z,3.67
2022-12-31T08:13:12.294Z,1.73
2022-12-31T08:15:44.651Z,1.13
2022-12-31T08:18:22.347Z,1.83
2022-12-31T08:21:07.363Z,1.58
2022-12-31T08:23:48.034Z,1.38
2022-12-31T08:26:31.106Z,0.90
2022-12-31T08:29:22.173Z,2.05
2022-12-31T08:31:59.906Z,0.75
2022-12-31T08:34:41.088Z,1.02
2022-12-31T08:37:17.517Z,1.80
2022-12-31T08:40:04.109Z,0.82
2022-12-31T08:42:43.470Z,2.05
2022-12-31T08:45:25.575Z,1.20
2022-12-31T08:48:06.273Z,3.80
2022-12-31T08:50:39.038Z,1.83
2022-12-31T08:53:13.346Z,3.85
2022-12-31T08:55:47.747Z,1.13
2022-12-31T09:01:48.080Z,2.13
2022-12-31T09:04:26.576Z,2.85
2022-12-31T09:07:04.665Z,1.40
2022-12-31T09:09:47.959Z,2.05
2022-12-31T09:12:29.289Z,3.72
2022-12-31T09:15:09.635Z,3.15
2022-12-31T09:17:48.778Z,0.60
2022-12-31T09:20:26.199Z,1.10
2022-12-31T09:22:59.480Z,2.40
2022-12-31T09:25:32.171Z,1.17
2022-12-31T09:28:14.985Z,1.33
2022-12-31T09:30:54.424Z,2.38
2022-12-31T09:33:39.932Z,1.00
2022-12-31T09:36:18.359Z,2.45
2022-12-31T09:38:59.043Z,2.10
2022-12-31T09:41:54.608Z,1.83
2022-12-31T09:44:57.864Z,1.60
2022-12-31T09:47:58.140Z,1.23
2022-12-31T09:50:57.450Z,2.30
2022-12-31T09:53:44.349Z,2.17
2022-12-31T09:56:23.935Z,0.88
2022-12-31T09:59:06.197Z,2.75
2022-12-31T10:01:52.828Z,3.10
2022-12-31T10:04:59.531Z,2.10
2022-12-31T10:07:53.594Z,1.08
2022-12-31T10:10:33.069Z,5.97
2022-12-31T10:13:24.327Z,1.30
2022-12-31T10:16:26.112Z,1.35
2022-12-31T10:19:27.176Z,0.57
2022-12-31T10:22:17.812Z,2.75
2022-12-31T10:25:38.545Z,1.58
2022-12-31T10:28:21.971Z,4.50
2022-12-31T10:31:19.964Z,3.35
2022-12-31T10:34:17.737Z,1.92
2022-12-31T10:37:05.712Z,1.75
2022-12-31T10:39:50.387Z,1.48
2022-12-31T10:43:11.659Z,2.05
2022-12-31T10:46:23.469Z,2.22
2022-12-31T10:49:21.079Z,2.80
2022-12-31T10:52:24.173Z,1.58
2022-12-31T10:55:33.086Z,1.60
2022-12-31T10:58:36.937Z,1.88
2022-12-31T11:01:20.685Z,2.25
2022-12-31T11:04:23.288Z,2.20
2022-12-31T11:07:27.493Z,2.47
2022-12-31T11:10:49.588Z,1.38
2022-12-31T11:13:52.519Z,1.75
2022-12-31T11:16:48.421Z,2.45
2022-12-31T11:19:35.642Z,4.35
2022-12-31T11:22:38.728Z,2.78
2022-12-31T11:25:31.288Z,2.38
2022-12-31T11:28:22.713Z,4.15
2022-12-31T11:31:14.497Z,2.60
2022-12-31T11:34:06.784Z,3.70
2022-12-31T11:36:49.074Z,3.35
2022-12-31T11:39:43.048Z,1.95
2022-12-31T11:42:26.328Z,2.53
2022-12-31T11:45:04.770Z,4.10
2022-12-31T11:48:29.232Z,4.20
2022-12-31T11:50:58.799Z,2.03
2022-12-31T11:53:47.994Z,2.22
2022-12-31T11:56:22.233Z,2.05
2022-12-31T11:58:56.138Z,1.30
2022-12-31T12:01:36.921Z,2.55
2022-12-31T12:04:09.042Z,2.70
2022-12-31T12:06:46.703Z,4.28
2022-12-31T12:09:25.837Z,4.35
2022-12-31T12:12:03.264Z,1.92
2022-12-31T12:14:37.261Z,2.05
2022-12-31T12:17:12.469Z,2.55
2022-12-31T12:19:48.419Z,2.50
2022-12-31T12:22:28.280Z,2.10
2022-12-31T12:25:05.989Z,3.47
2022-12-31T12:27:42.027Z,3.42
2022-12-31T12:30:14.892Z,1.98
2022-12-31T12:33:02.586Z,2.20
2022-12-31T12:35:37.675Z,2.15
2022-12-31T12:38:20.048Z,2.45
2022-12-31T12:41:00.590Z,3.80
2022-12-31T12:43:35.629Z,4.38
2022-12-31T12:46:09.684Z,2.67
2022-12-31T12:48:44.217Z,3.20
2022-12-31T12:51:29.150Z,2.70
2022-12-31T12:54:13.455Z,3.63
2022-12-31T12:56:55.202Z,3.17
2022-12-31T12:59:51.314Z,2.50
2022-12-31T13:02:57.772Z,2.67
2022-12-31T13:05:41.319Z,4.50
2022-12-31T13:08:28.153Z,1.98
2022-12-31T13:11:16.329Z,3.28
2022-12-31T13:13:57.604Z,1.75
2022-12-31T13:16:38.082Z,3.60
2022-12-31T13:19:19.639Z,3.58
2022-12-31T13:21:59.845Z,4.38
2022-12-31T13:24:46.085Z,2.00
2022-12-31T13:27:27.335Z,2.38
2022-12-31T13:30:03.445Z,4.20
2022-12-31T13:32:42.853Z,3.60
2022-12-31T13:35:29.251Z,2.55
2022-12-31T13:38:07.652Z,3.35
2022-12-31T13:40:49.464Z,2.05
2022-12-31T13:43:35.812Z,2.05
2022-12-31T13:46:15.741Z,2.90
2022-12-31T13:48:54.875Z,3.15
2022-12-31T13:51:37.057Z,2.55
2022-12-31T13:54:15.963Z,1.73
2022-12-31T13:56:51.478Z,3.58
2022-12-31T13:59:31.782Z,1.50
2022-12-31T14:02:12.019Z,3.70
2022-12-31T14:04:50.850Z,3.95
2022-12-31T14:07:36.473Z,4.07
2022-12-31T14:10:16.756Z,4.13
2022-12-31T14:12:59.290Z,1.95
2022-12-31T14:15:44.456Z,2.15
2022-12-31T14:18:24.611Z,3.50
2022-12-31T14:21:05.448Z,2.75
2022-12-31T14:23:46.372Z,2.80
2022-12-31T14:26:28.647Z,2.72
2022-12-31T14:29:11.920Z,3.25
2022-12-31T14:32:09.633Z,2.83
2022-12-31T14:34:50.051Z,2.75
2022-12-31T14:37:33.297Z,3.10
2022-12-31T14:40:19.648Z,4.03
2022-12-31T14:43:04.848Z,1.90
2022-12-31T14:45:51.097Z,3.20
2022-12-31T14:48:36.594Z,3.50
2022-12-31T14:51:09.764Z,3.53
2022-12-31T14:53:42.166Z,3.00
2022-12-31T14:56:34.361Z,2.55
2022-12-31T14:59:06.794Z,4.25
2022-12-31T15:01:48.519Z,3.53
2022-12-31T15:04:34.578Z,5.60
2022-12-31T15:07:22.272Z,3.50
2022-12-31T15:10:12.017Z,3.08
2022-12-31T15:12:58.811Z,6.22
2022-12-31T15:15:48.124Z,3.45
2022-12-31T15:18:40.762Z,5.55
2022-12-31T15:21:47.641Z,3.28
2022-12-31T15:24:23.590Z,5.95
2022-12-31T15:26:57.832Z,4.88
2022-12-31T15:29:34.701Z,5.78
2022-12-31T15:32:11.451Z,3.95
2022-12-31T15:34:42.840Z,6.60
2022-12-31T15:37:37.192Z,5.82
2022-12-31T15:40:21.738Z,3.55
2022-12-31T15:42:58.662Z,6.60
2022-12-31T15:45:36.799Z,7.40
2022-12-31T15:48:18.115Z,11.20
2022-12-31T15:50:50.738Z,7.10
2022-12-31T15:53:32.135Z,7.57
2022-12-31T15:56:05.596Z,4.13
2022-12-31T15:58:39.819Z,5.05
2022-12-31T16:01:18.297Z,6.15
2022-12-31T16:03:54.634Z,5.22
2022-12-31T16:06:31.907Z,9.95
2022-12-31T16:09:09.857Z,7.93
2022-12-31T16:11:45.450Z,5.85
2022-12-31T16:14:23.373Z,13.88
2022-12-31T16:16:58.386Z,9.68
2022-12-31T16:19:35.496Z,10.30
2022-12-31T16:22:17.193Z,10.43
2022-12-31T16:27:53.654Z,6.82
2022-12-31T16:30:30.121Z,10.07
2022-12-31T16:33:06.944Z,11.60
2022-12-31T16:35:40.036Z,10.07
2022-12-31T16:38:18.279Z,8.98
2022-12-31T16:41:11.103Z,9.70
2022-12-31T16:43:44.820Z,13.15
2022-12-31T16:46:26.511Z,10.18
2022-12-31T16:49:00.407Z,13.60
2022-12-31T16:51:37.386Z,9.77
2022-12-31T16:54:23.104Z,7.80
2022-12-31T16:56:58.440Z,12.25
2022-12-31T16:59:35.668Z,10.50
2022-12-31T17:02:21.040Z,9.05
2022-12-31T17:04:59.297Z,9.32
2022-12-31T17:07:43.218Z,14.57
2022-12-31T17:10:23.776Z,11.98
2022-12-31T17:15:56.586Z,13.63
2022-12-31T17:18:32.710Z,9.73
2022-12-31T17:21:11.305Z,7.03
2022-12-31T17:23:47.239Z,8.40
2022-12-31T17:26:27.271Z,10.23
2022-12-31T17:29:06.258Z,10.23
2022-12-31T17:31:40.542Z,8.25
2022-12-31T17:34:26.885Z,7.07
2022-12-31T17:37:03.432Z,6.60
2022-12-31T17:40:10.911Z,8.95
2022-12-31T17:42:50.405Z,10.07
2022-12-31T17:45:27.029Z,10.65
2022-12-31T17:48:02.301Z,11.82
2022-12-31T17:50:35.506Z,9.10
2022-12-31T17:53:14.436Z,11.02
2022-12-31T17:55:49.462Z,10.88
2022-12-31T17:58:27.752Z,11.40
2022-12-31T18:01:05.643Z,8.15
2022-12-31T18:03:37.641Z,7.63
2022-12-31T18:06:16.531Z,11.20
2022-12-31T18:08:49.974Z,12.32
2022-12-31T18:11:26.814Z,6.72
2022-12-31T18:14:00.617Z,12.27
2022-12-31T18:16:35.417Z,7.82
2022-12-31T18:19:37.938Z,8.82
2022-12-31T18:22:06.885Z,8.50
2022-12-31T18:24:42.279Z,8.00
2022-12-31T18:27:22.410Z,6.60
2022-12-31T18:30:02.265Z,11.40
2022-12-31T18:32:42.865Z,9.73
2022-12-31T18:35:40.745Z,13.07
2022-12-31T18:38:16.876Z,8.93
2022-12-31T18:40:58.369Z,8.05
2022-12-31T18:43:32.192Z,9.95
2022-12-31T18:46:03.817Z,9.02
2022-12-31T18:48:41.833Z,7.28
2022-12-31T18:51:18.643Z,24.02
2022-12-31T18:53:50.566Z,17.92
2022-12-31T18:56:25.485Z,28.85
2022-12-31T18:58:58.419Z,52.30
2022-12-31T19:01:33.654Z,45.80
2022-12-31T19:04:18.784Z,13.13
2022-12-31T19:06:53.316Z,24.42
2022-12-31T19:12:18.458Z,31.85
2022-12-31T19:14:50.148Z,25.25
2022-12-31T19:17:21.938Z,31.55
2022-12-31T19:20:03.015Z,32.28
2022-12-31T19:22:34.943Z,26.17
2022-12-31T19:25:16.628Z,16.58
2022-12-31T19:27:48.202Z,14.35
2022-12-31T19:30:24.120Z,18.77
2022-12-31T19:32:58.685Z,20.83
2022-12-31T19:35:32.927Z,32.40
2022-12-31T19:38:04.949Z,19.35
2022-12-31T19:40:37.299Z,21.80
2022-12-31T19:43:15.321Z,25.75
2022-12-31T19:45:48.496Z,37.90
2022-12-31T19:48:24.675Z,33.97
2022-12-31T19:51:05.148Z,26.60
2022-12-31T19:53:39.203Z,12.85
2022-12-31T19:56:15.682Z,10.85
2022-12-31T19:58:47.426Z,13.57
2022-12-31T20:01:24.650Z,17.15
2022-12-31T20:03:56.725Z,11.63
2022-12-31T20:06:31.125Z,12.77
2022-12-31T20:09:02.767Z,13.07
2022-12-31T20:11:35.189Z,15.75
2022-12-31T20:14:06.730Z,13.77
2022-12-31T20:16:38.394Z,15.38
2022-12-31T20:19:09.693Z,16.38
2022-12-31T20:21:45.343Z,21.48
2022-12-31T20:24:17.010Z,30.90
2022-12-31T20:26:48.573Z,102.60
2022-12-31T20:29:20.521Z,47.15
2022-12-31T20:31:52.013Z,33.47
2022-12-31T20:34:23.190Z,12.20
2022-12-31T20:36:58.037Z,22.02
2022-12-31T20:39:30.644Z,17.17
2022-12-31T20:42:02.873Z,13.00
2022-12-31T20:44:34.328Z,16.30
2022-12-31T20:47:06.333Z,16.33
2022-12-31T20:50:09.847Z,10.35
2022-12-31T20:52:34.269Z,15.13
2022-12-31T20:55:06.347Z,13.52
2022-12-31T20:57:38.357Z,11.40
2022-12-31T21:00:10.960Z,12.18
2022-12-31T21:02:50.977Z,13.38
2022-12-31T21:05:30.085Z,11.20
2022-12-31T21:08:04.856Z,13.23
2022-12-31T21:10:37.511Z,14.25
2022-12-31T21:13:06.319Z,13.10
2022-12-31T21:15:39.701Z,15.68
2022-12-31T21:18:11.338Z,10.32
2022-12-31T21:20:43.914Z,15.90
2022-12-31T21:23:19.163Z,18.05
2022-12-31T21:25:54.880Z,22.67
2022-12-31T21:28:28.468Z,14.85
2022-12-31T21:31:03.757Z,16.20
2022-12-31T21:33:35.611Z,17.13
2022-12-31T21:36:08.986Z,12.90
2022-12-31T21:38:43.445Z,12.43
2022-12-31T21:41:36.280Z,12.75
2022-12-31T21:44:08.670Z,10.05
2022-12-31T21:46:54.546Z,9.60
2022-12-31T21:49:32.081Z,15.48
2022-12-31T21:52:15.999Z,14.07
2022-12-31T21:55:03.114Z,11.55
2022-12-31T21:57:52.191Z,17.08
2022-12-31T22:00:42.954Z,12.55
2022-12-31T22:03:28.391Z,9.90
2022-12-31T22:06:06.241Z,12.38
2022-12-31T22:08:38.503Z,23.40
2022-12-31T22:11:15.445Z,20.73
2022-12-31T22:13:54.893Z,19.15
2022-12-31T22:16:27.039Z,13.63
2022-12-31T22:19:01.629Z,15.18
2022-12-31T22:21:33.546Z,17.35
2022-12-31T22:24:05.645Z,32.95
2022-12-31T22:26:44.784Z,20.85
2022-12-31T22:29:21.817Z,17.95
2022-12-31T22:31:59.435Z,11.35
2022-12-31T22:34:33.364Z,16.80
2022-12-31T22:37:27.511Z,37.13
2022-12-31T22:39:57.074Z,21.60
2022-12-31T22:42:31.902Z,11.18
2022-12-31T22:45:07.253Z,298.10
2022-12-31T22:47:41.888Z,19.38
2022-12-31T22:50:13.682Z,62.42
2022-12-31T22:52:45.350Z,32.67
2022-12-31T22:55:23.119Z,19.50
2022-12-31T22:58:02.873Z,55.53
2022-12-31T23:00:44.419Z,59.28
2022-12-31T23:03:16.703Z,156.65
2022-12-31T23:05:53.826Z,171.93
2022-12-31T23:08:26.553Z,129.85
2022-12-31T23:11:06.147Z,184.43
2022-12-31T23:13:56.354Z,176.65
2022-12-31T23:16:45.675Z,140.57
2022-12-31T23:19:31.605Z,155.43
2022-12-31T23:22:15.638Z,184.02
2022-12-31T23:24:47.431Z,152.50
2022-12-31T23:27:18.909Z,145.88
2022-12-31T23:29:53.153Z,118.10
2022-12-31T23:32:26.924Z,153.85
2022-12-31T23:35:06.130Z,132.45
2022-12-31T23:37:41.306Z,113.32
2022-12-31T23:40:20.834Z,129.52
2022-12-31T23:42:53.151Z,101.82
2022-12-31T23:45:32.812Z,107.22
2022-12-31T23:48:05.621Z,91.18
2022-12-31T23:50:37.261Z,87.45
2022-12-31T23:53:08.795Z,77.07
2022-12-31T23:55:40.382Z,80.30
2022-12-31T23:58:11.831Z,82.28
